Time;durP1;ratioP1;P1;durP2;ratioP2;P2;SDS_P1;SDS_P2;PMS_P1;PMS_P2;Temp;Humidity;BMP_temperature;BMP_pressure;BME280_temperature;BME280_humidity;BME280_pressure;Samples;Min_cycle;Max_cycle;Signal;HPM_P1;HPM_P2
2021/12/13 00:01:08;;;;;;;8.20;7.40;;;5.30;99.90;;;;;;5030576;28;20255;-80
2021/12/13 00:03:56;;;;;;;8.67;7.87;;;5.10;99.90;;;;;;5031620;28;20220;-80
2021/12/13 00:06:30;;;;;;;8.60;7.70;;;5.20;99.90;;;;;;5030557;28;20202;-80
2021/12/13 00:09:00;;;;;;;10.53;9.43;;;5.20;99.90;;;;;;5031651;28;20203;-80
2021/12/13 00:11:33;;;;;;;8.63;7.67;;;5.30;99.90;;;;;;5030400;28;20183;-80
2021/12/13 00:14:23;;;;;;;8.20;7.40;;;5.40;99.90;;;;;;5030538;28;20281;-80
2021/12/13 00:16:59;;;;;;;8.17;7.37;;;5.50;99.90;;;;;;5030472;28;20247;-80
2021/12/13 00:19:32;;;;;;;8.77;7.87;;;5.40;99.90;;;;;;5034756;28;20163;-80
2021/12/13 00:22:02;;;;;;;8.20;7.40;;;5.30;99.90;;;;;;5036052;28;20211;-80
2021/12/13 00:24:35;;;;;;;8.77;7.53;;;5.30;99.90;;;;;;5035417;28;20171;-80
2021/12/13 00:27:24;;;;;;;7.03;6.43;;;5.40;99.90;;;;;;5034327;28;20199;-80
2021/12/13 00:30:13;;;;;;;8.23;7.20;;;5.40;99.90;;;;;;5035972;28;20224;-80
2021/12/13 00:33:05;;;;;;;7.50;6.83;;;5.50;99.90;;;;;;5034685;28;20172;-80
2021/12/13 00:35:59;;;;;;;7.70;7.00;;;5.40;99.90;;;;;;5033453;28;20182;-80
2021/12/13 00:38:27;;;;;;;9.47;8.47;;;5.40;99.90;;;;;;5032488;28;20163;-80
2021/12/13 00:41:07;;;;;;;8.93;7.97;;;5.30;99.90;;;;;;5031152;28;20199;-80
2021/12/13 00:43:37;;;;;;;8.03;7.33;;;5.30;99.90;;;;;;5030802;28;20653;-80
2021/12/13 00:46:07;;;;;;;8.80;8.00;;;5.30;99.90;;;;;;5031865;28;20211;-80
2021/12/13 00:48:37;;;;;;;9.40;8.30;;;5.30;99.90;;;;;;5031341;28;20220;-80
2021/12/13 00:51:10;;;;;;;8.03;7.33;;;5.30;99.90;;;;;;5031796;28;20166;-80
2021/12/13 00:53:40;;;;;;;8.23;7.47;;;5.20;99.90;;;;;;5032051;28;20179;-80
2021/12/13 00:56:45;;;;;;;8.60;7.47;;;5.30;99.90;;;;;;5030509;28;20210;-80
2021/12/13 00:59:14;;;;;;;8.43;7.67;;;5.20;99.90;;;;;;5032292;28;20199;-80
2021/12/13 01:01:41;;;;;;;9.23;8.33;;;5.20;99.90;;;;;;5031925;28;20203;-80
2021/12/13 01:04:13;;;;;;;10.00;8.50;;;5.20;99.90;;;;;;5030452;28;20214;-80
2021/12/13 01:07:16;;;;;;;8.87;8.07;;;5.40;99.90;;;;;;5032481;28;20191;-80
2021/12/13 01:09:45;;;;;;;8.80;8.00;;;5.50;99.90;;;;;;5031388;28;20179;-80
2021/12/13 01:12:18;;;;;;;9.40;8.50;;;5.50;99.90;;;;;;5030963;28;20190;-80
2021/12/13 01:15:13;;;;;;;9.47;8.57;;;5.40;99.90;;;;;;5030933;28;20698;-80
2021/12/13 01:18:02;;;;;;;9.47;8.57;;;5.40;99.90;;;;;;5022840;28;20222;-80
2021/12/13 01:20:32;;;;;;;9.97;9.07;;;5.40;99.90;;;;;;5030904;28;20205;-80
2021/12/13 01:23:07;;;;;;;10.80;8.83;;;5.50;99.90;;;;;;5030975;28;20167;-80
2021/12/13 01:28:32;;;;;;;9.67;8.67;;;5.60;99.90;;;;;;5032311;28;20497;-80
2021/12/13 01:31:23;;;;;;;9.13;7.90;;;5.50;99.90;;;;;;5031226;28;20179;-80
2021/12/13 01:33:51;;;;;;;8.90;8.00;;;5.50;99.90;;;;;;5030815;28;20175;-80
2021/12/13 01:36:25;;;;;;;9.07;8.17;;;5.50;99.90;;;;;;5030629;28;20294;-80
2021/12/13 01:38:55;;;;;;;9.70;8.70;;;5.40;99.90;;;;;;5030728;28;20695;-80
2021/12/13 01:41:25;;;;;;;8.77;7.93;;;5.50;99.90;;;;;;5030538;28;20194;-80
2021/12/13 01:43:56;;;;;;;9.67;8.77;;;5.50;99.90;;;;;;5031022;28;20167;-80
2021/12/13 01:46:23;;;;;;;9.70;8.73;;;5.60;99.90;;;;;;5032146;28;20225;-80
2021/12/13 01:48:50;;;;;;;9.00;8.20;;;5.60;99.90;;;;;;5032436;28;20193;-80
2021/12/13 01:51:20;;;;;;;9.70;8.80;;;5.60;99.90;;;;;;5031891;28;20190;-80
2021/12/13 01:53:50;;;;;;;9.70;8.77;;;5.70;99.90;;;;;;5032232;28;20187;-80
2021/12/13 01:56:41;;;;;;;10.10;9.10;;;5.70;99.90;;;;;;5031687;28;20210;-80
2021/12/13 01:59:43;;;;;;;11.27;9.80;;;5.70;99.90;;;;;;5035893;28;20162;-80
2021/12/13 02:02:30;;;;;;;10.20;9.07;;;5.70;99.90;;;;;;5034636;28;20202;-80
2021/12/13 02:05:16;;;;;;;10.33;9.33;;;5.70;99.90;;;;;;5035033;28;20323;-80
2021/12/13 02:07:57;;;;;;;10.83;9.57;;;5.60;99.90;;;;;;5033940;28;20207;-80
2021/12/13 02:10:37;;;;;;;14.77;10.53;;;5.50;99.90;;;;;;5034905;28;20282;-80
2021/12/13 02:13:09;;;;;;;12.77;11.03;;;5.50;99.90;;;;;;5033503;28;20269;-80
2021/12/13 02:18:25;;;;;;;11.77;10.43;;;5.30;99.90;;;;;;5036576;28;20170;-80
2021/12/13 02:21:04;;;;;;;11.90;10.60;;;5.30;99.90;;;;;;5035477;28;20207;-80
2021/12/13 02:23:32;;;;;;;12.10;10.53;;;5.20;99.90;;;;;;5035066;28;20178;-80
2021/12/13 02:25:58;;;;;;;11.87;10.30;;;5.30;99.90;;;;;;5033370;28;20207;-80
2021/12/13 02:28:29;;;;;;;10.80;9.67;;;5.30;99.90;;;;;;5034071;28;20175;-80
2021/12/13 02:30:59;;;;;;;11.93;9.87;;;5.30;99.90;;;;;;5032539;28;20282;-80
2021/12/13 02:33:37;;;;;;;10.83;9.70;;;5.40;99.90;;;;;;5032649;28;20183;-80
2021/12/13 02:36:10;;;;;;;11.37;9.80;;;5.40;99.90;;;;;;5033547;28;20221;-80
2021/12/13 02:38:39;;;;;;;11.77;10.53;;;5.40;99.90;;;;;;5032936;28;20183;-80
2021/12/13 02:41:07;;;;;;;11.57;10.43;;;5.30;99.90;;;;;;5032804;28;20251;-80
2021/12/13 02:43:37;;;;;;;11.30;10.13;;;5.30;99.90;;;;;;5034346;28;20203;-80
2021/12/13 02:46:03;;;;;;;10.47;9.37;;;5.40;99.90;;;;;;5032809;28;20264;-80
2021/12/13 02:48:40;;;;;;;10.70;9.70;;;5.40;99.90;;;;;;5032595;28;20175;-80
2021/12/13 02:51:12;;;;;;;11.30;10.07;;;5.40;99.90;;;;;;5033265;28;20273;-80
2021/12/13 02:53:41;;;;;;;9.83;8.83;;;5.40;99.90;;;;;;5032186;28;20182;-80
2021/12/13 02:56:07;;;;;;;10.77;9.67;;;5.40;99.90;;;;;;5032380;28;20210;-80
2021/12/13 02:58:36;;;;;;;11.47;10.27;;;5.50;99.90;;;;;;5032723;28;20183;-80
2021/12/13 03:01:08;;;;;;;11.90;9.90;;;5.50;99.90;;;;;;5032918;28;20268;-80
2021/12/13 03:03:39;;;;;;;11.10;9.83;;;5.40;99.90;;;;;;5032413;28;20224;-80
2021/12/13 03:06:08;;;;;;;12.77;10.30;;;5.50;99.90;;;;;;5032776;28;20222;-80
2021/12/13 03:08:38;;;;;;;12.10;10.30;;;5.50;99.90;;;;;;5033178;28;20171;-80
2021/12/13 03:11:10;;;;;;;10.47;9.40;;;5.60;99.90;;;;;;5032773;28;20171;-80
2021/12/13 03:13:36;;;;;;;10.07;9.03;;;5.70;99.90;;;;;;5033513;28;20176;-80
2021/12/13 03:16:11;;;;;;;10.77;9.63;;;5.60;99.90;;;;;;5032303;28;20297;-80
2021/12/13 03:18:45;;;;;;;10.60;9.60;;;5.60;99.90;;;;;;5032901;28;20174;-80
2021/12/13 03:21:22;;;;;;;10.67;9.57;;;5.70;99.90;;;;;;5032515;28;20234;-80
2021/12/13 03:24:17;;;;;;;10.67;9.57;;;5.70;99.90;;;;;;5032600;28;20336;-80
2021/12/13 03:27:03;;;;;;;9.87;8.43;;;5.70;99.90;;;;;;5032015;28;20240;-80
2021/12/13 03:29:39;;;;;;;11.53;9.93;;;5.70;99.90;;;;;;5033019;28;20174;-80
2021/12/13 03:32:10;;;;;;;9.57;8.57;;;5.70;99.90;;;;;;5033395;28;20266;-80
2021/12/13 03:34:36;;;;;;;9.27;8.37;;;5.70;99.90;;;;;;5032264;28;20190;-80
2021/12/13 03:37:10;;;;;;;10.43;9.30;;;5.70;99.90;;;;;;5032465;28;20207;-80
2021/12/13 03:39:43;;;;;;;9.87;8.87;;;5.70;99.90;;;;;;5031477;28;20183;-80
2021/12/13 03:42:14;;;;;;;9.30;8.40;;;5.70;99.90;;;;;;5031333;28;20207;-80
2021/12/13 03:44:46;;;;;;;9.53;8.53;;;5.70;99.90;;;;;;5032074;28;20203;-80
2021/12/13 03:47:26;;;;;;;9.90;8.90;;;5.70;99.90;;;;;;5030904;28;20597;-80
2021/12/13 03:49:59;;;;;;;10.63;9.53;;;5.70;99.90;;;;;;5031503;28;20269;-80
2021/12/13 03:52:28;;;;;;;10.33;9.20;;;5.60;99.90;;;;;;5032601;28;20198;-80
2021/12/13 03:54:57;;;;;;;10.20;9.13;;;5.60;99.90;;;;;;5031623;28;20183;-80
2021/12/13 03:57:24;;;;;;;10.37;9.30;;;5.60;99.90;;;;;;5031210;28;20199;-80
2021/12/13 03:59:51;;;;;;;8.70;7.90;;;5.60;99.90;;;;;;5030854;28;20194;-80
2021/12/13 04:02:30;;;;;;;10.13;8.90;;;5.70;99.90;;;;;;5031036;28;20690;-80
2021/12/13 04:05:00;;;;;;;10.03;9.03;;;5.70;99.90;;;;;;5031181;28;20190;-80
2021/12/13 04:07:33;;;;;;;10.23;9.13;;;5.70;99.90;;;;;;5030808;28;20206;-80
2021/12/13 04:10:04;;;;;;;9.83;8.83;;;5.70;99.90;;;;;;5030787;28;20171;-80
2021/12/13 04:12:40;;;;;;;9.80;8.73;;;5.70;99.90;;;;;;5030918;28;20642;-80
2021/12/13 04:15:34;;;;;;;10.20;8.93;;;5.70;99.90;;;;;;5031938;28;20540;-80
2021/12/13 04:18:26;;;;;;;9.70;8.70;;;5.80;99.90;;;;;;5031770;28;20218;-80
2021/12/13 04:20:57;;;;;;;9.93;8.83;;;5.70;99.90;;;;;;5031650;28;20223;-80
2021/12/13 04:23:23;;;;;;;9.73;8.60;;;5.70;99.90;;;;;;5032528;28;20191;-80
2021/12/13 04:25:50;;;;;;;10.57;8.93;;;5.60;99.90;;;;;;5031337;28;20675;-80
2021/12/13 04:28:31;;;;;;;10.07;9.07;;;5.50;99.90;;;;;;5031174;28;20175;-80
2021/12/13 04:31:01;;;;;;;12.07;10.43;;;5.50;99.90;;;;;;5031982;28;20590;-80
2021/12/13 04:33:31;;;;;;;12.80;10.07;;;5.50;99.90;;;;;;5031596;28;20183;-80
2021/12/13 04:36:04;;;;;;;11.17;8.93;;;5.60;99.90;;;;;;5030489;28;20211;-80
2021/12/13 04:38:48;;;;;;;11.03;9.43;;;5.60;99.90;;;;;;5030686;28;20183;-80
2021/12/13 04:41:22;;;;;;;10.90;8.67;;;5.60;99.90;;;;;;5031566;28;20206;-80
2021/12/13 04:43:48;;;;;;;10.00;8.77;;;5.60;99.90;;;;;;5030750;28;20551;-80
2021/12/13 04:46:17;;;;;;;10.13;9.07;;;5.60;99.90;;;;;;5030526;28;20319;-80
2021/12/13 04:48:45;;;;;;;13.37;11.30;;;5.60;99.90;;;;;;5030021;28;20179;-80
2021/12/13 04:51:15;;;;;;;11.63;10.43;;;5.40;99.90;;;;;;5030173;28;20232;-80
2021/12/13 04:53:47;;;;;;;13.43;11.67;;;5.30;99.90;;;;;;5030979;28;20270;-80
2021/12/13 04:56:20;;;;;;;15.93;12.43;;;5.20;99.90;;;;;;5029800;28;20737;-80
2021/12/13 04:58:49;;;;;;;15.37;12.17;;;5.20;99.90;;;;;;5030050;28;20190;-80
2021/12/13 05:01:17;;;;;;;15.77;12.77;;;5.10;99.90;;;;;;5030187;28;20211;-80
2021/12/13 05:03:51;;;;;;;19.67;14.60;;;5.20;99.90;;;;;;5030564;28;20179;-80
2021/12/13 05:06:21;;;;;;;16.10;12.60;;;5.30;99.90;;;;;;5030017;28;20669;-80
2021/12/13 05:08:49;;;;;;;19.70;14.23;;;5.30;99.90;;;;;;5030875;28;20183;-80
2021/12/13 05:11:14;;;;;;;29.60;14.10;;;5.30;99.90;;;;;;5029765;28;20239;-80
2021/12/13 05:13:53;;;;;;;15.50;12.87;;;5.30;99.90;;;;;;5030196;28;20629;-80
2021/12/13 05:16:38;;;;;;;18.50;13.17;;;5.30;99.90;;;;;;5029417;28;20207;-80
2021/12/13 05:19:05;;;;;;;21.13;14.17;;;5.30;99.90;;;;;;5029791;28;20288;-81
2021/12/13 05:21:40;;;;;;;21.40;14.70;;;5.30;99.90;;;;;;5029315;28;20587;-80
2021/12/13 05:24:12;;;;;;;18.80;13.63;;;5.30;99.90;;;;;;5029461;28;20269;-84
2021/12/13 05:26:43;;;;;;;21.73;14.17;;;5.20;99.90;;;;;;5030713;28;20230;-80
2021/12/13 05:29:26;;;;;;;19.33;14.03;;;5.30;99.90;;;;;;5029536;28;20175;-80
2021/12/13 05:31:56;;;;;;;20.43;13.57;;;5.20;99.90;;;;;;5029704;28;20637;-80
2021/12/13 05:34:31;;;;;;;22.70;13.67;;;5.20;99.90;;;;;;5029471;28;20183;-81
2021/12/13 05:37:00;;;;;;;18.20;13.20;;;5.20;99.90;;;;;;5030854;28;20281;-80
2021/12/13 05:39:26;;;;;;;18.57;13.40;;;5.20;99.90;;;;;;5030002;28;20205;-80
2021/12/13 05:42:11;;;;;;;17.40;12.83;;;5.30;99.90;;;;;;5030769;28;20214;-80
2021/12/13 05:44:43;;;;;;;17.57;12.93;;;5.40;99.90;;;;;;5030363;28;20167;-79
2021/12/13 05:47:25;;;;;;;17.13;12.70;;;5.50;99.90;;;;;;5029212;28;20221;-79
2021/12/13 05:49:52;;;;;;;16.80;12.27;;;5.40;99.90;;;;;;5030774;28;20163;-80
2021/12/13 05:52:24;;;;;;;17.33;12.77;;;5.50;99.90;;;;;;5029140;28;20187;-80
2021/12/13 05:54:59;;;;;;;18.03;12.67;;;5.50;99.90;;;;;;5030020;28;20175;-81
2021/12/13 05:57:34;;;;;;;17.30;12.57;;;5.40;99.90;;;;;;5029146;28;20202;-80
2021/12/13 06:00:24;;;;;;;17.57;12.13;;;5.30;99.90;;;;;;5029303;28;20179;-80
2021/12/13 06:03:05;;;;;;;16.90;12.33;;;5.20;99.90;;;;;;5029827;28;20202;-81
2021/12/13 06:05:39;;;;;;;16.67;12.40;;;5.10;99.90;;;;;;5028881;28;20255;-81
2021/12/13 06:08:17;;;;;;;17.80;11.93;;;5.10;99.90;;;;;;5029875;28;20179;-81
2021/12/13 06:10:57;;;;;;;18.50;12.97;;;5.10;99.90;;;;;;5029915;28;20282;-81
2021/12/13 06:13:54;;;;;;;19.07;12.97;;;5.00;99.90;;;;;;5029979;28;20187;-81
2021/12/13 06:16:26;;;;;;;17.30;12.30;;;5.10;99.90;;;;;;5028877;28;20251;-81
2021/12/13 06:18:57;;;;;;;19.90;13.33;;;5.10;99.90;;;;;;5028959;28;20180;-80
2021/12/13 06:22:00;;;;;;;20.13;12.90;;;5.00;99.90;;;;;;5028869;28;20637;-80
2021/12/13 06:24:38;;;;;;;21.33;12.40;;;5.00;99.90;;;;;;5029078;28;20190;-80
2021/12/13 06:27:11;;;;;;;24.90;17.50;;;5.00;99.90;;;;;;5028848;28;20672;-80
2021/12/13 06:29:54;;;;;;;20.80;13.57;;;5.00;99.90;;;;;;5029617;28;20223;-80
2021/12/13 06:32:43;;;;;;;19.43;13.33;;;5.10;99.90;;;;;;5029522;28;20546;-80
2021/12/13 06:35:36;;;;;;;18.43;13.37;;;5.20;99.90;;;;;;5029196;28;20233;-81
2021/12/13 06:38:23;;;;;;;17.47;12.30;;;5.30;99.90;;;;;;5028499;28;20183;-81
2021/12/13 06:40:52;;;;;;;19.77;12.53;;;5.30;99.90;;;;;;5028487;28;20263;-80
2021/12/13 06:43:33;;;;;;;20.57;13.10;;;5.30;99.90;;;;;;5028582;28;20183;-80
2021/12/13 06:46:02;;;;;;;20.23;14.53;;;5.40;99.90;;;;;;5031811;28;20230;-80
2021/12/13 06:48:49;;;;;;;25.47;16.30;;;5.50;99.90;;;;;;5031799;28;20183;-80
2021/12/13 06:51:18;;;;;;;24.13;15.77;;;5.60;99.90;;;;;;5031969;28;20637;-80
2021/12/13 06:54:09;;;;;;;20.57;13.90;;;5.50;99.90;;;;;;5033228;28;20247;-81
2021/12/13 06:56:36;;;;;;;17.83;12.57;;;5.30;99.90;;;;;;5032317;28;20206;-80
2021/12/13 06:59:06;;;;;;;21.87;12.80;;;5.30;99.90;;;;;;5033219;28;20186;-80
2021/12/13 07:01:35;;;;;;;18.47;13.37;;;5.50;99.90;;;;;;5032218;28;20206;-80
2021/12/13 07:04:08;;;;;;;17.37;12.33;;;5.50;99.90;;;;;;5031679;28;20179;-80
2021/12/13 07:06:38;;;;;;;16.93;12.53;;;5.60;99.90;;;;;;5032145;28;20218;-80
2021/12/13 07:09:17;;;;;;;17.30;12.10;;;5.70;99.90;;;;;;5031583;28;20183;-80
2021/12/13 07:11:45;;;;;;;21.73;13.50;;;5.70;99.90;;;;;;5031313;28;20181;-80
2021/12/13 07:14:14;;;;;;;24.27;17.43;;;5.60;99.90;;;;;;5031701;28;20175;-81
2021/12/13 07:16:43;;;;;;;20.87;15.23;;;5.60;99.90;;;;;;5031928;28;20635;-81
2021/12/13 07:19:18;;;;;;;43.03;32.17;;;5.60;99.90;;;;;;5031782;28;20179;-80
2021/12/13 07:21:54;;;;;;;35.87;27.07;;;5.50;99.90;;;;;;5032077;28;20267;-80
2021/12/13 07:24:42;;;;;;;44.10;29.10;;;5.60;99.90;;;;;;5032507;28;20186;-80
2021/12/13 07:27:15;;;;;;;38.57;29.23;;;5.60;99.90;;;;;;5031814;28;20199;-80
2021/12/13 07:29:45;;;;;;;43.67;33.27;;;5.70;99.90;;;;;;5031366;28;20179;-80
2021/12/13 07:32:31;;;;;;;40.17;30.20;;;5.70;99.90;;;;;;5031995;28;20179;-80
2021/12/13 07:38:21;;;;;;;29.20;22.47;;;5.80;99.90;;;;;;5032247;28;20159;-80
2021/12/13 07:41:05;;;;;;;23.20;17.23;;;5.90;99.90;;;;;;5031507;28;20179;-80
2021/12/13 07:43:38;;;;;;;25.53;20.37;;;6.00;99.90;;;;;;5031680;28;20219;-80
2021/12/13 07:46:19;;;;;;;28.10;21.47;;;6.00;99.90;;;;;;5031528;28;20194;-80
2021/12/13 07:48:45;;;;;;;19.83;16.37;;;5.90;99.90;;;;;;5031169;28;20197;-80
2021/12/13 07:51:28;;;;;;;20.03;14.57;;;6.10;99.90;;;;;;5031188;28;20545;-80
2021/12/13 07:53:53;;;;;;;17.57;14.00;;;6.10;99.90;;;;;;5030831;28;20183;-80
2021/12/13 07:57:15;;;;;;;17.97;13.97;;;6.10;99.90;;;;;;5031417;28;20313;-80
2021/12/13 08:00:29;;;;;;;23.50;17.47;;;6.10;99.90;;;;;;5031648;28;20185;-80
2021/12/13 08:03:11;;;;;;;39.07;26.50;;;6.00;99.90;;;;;;5030724;28;20205;-79
2021/12/13 08:06:05;;;;;;;24.10;17.73;;;6.00;99.90;;;;;;5032141;28;20167;-80
2021/12/13 08:08:32;;;;;;;53.13;39.00;;;6.00;99.90;;;;;;5031160;28;20228;-80
2021/12/13 08:10:59;;;;;;;113.90;72.53;;;6.10;99.90;;;;;;5031362;28;20262;-80
2021/12/13 08:13:31;;;;;;;154.50;100.93;;;6.10;99.90;;;;;;5030537;28;20183;-80
2021/12/13 08:16:01;;;;;;;123.33;88.37;;;6.10;99.90;;;;;;5030504;28;20297;-80
2021/12/13 08:18:43;;;;;;;137.33;92.60;;;6.20;99.90;;;;;;5032205;28;20187;-80
2021/12/13 08:21:13;;;;;;;112.80;69.90;;;6.20;99.90;;;;;;5030573;28;20217;-80
2021/12/13 08:23:58;;;;;;;56.57;40.53;;;6.20;99.90;;;;;;5030459;28;20227;-80
2021/12/13 08:26:36;;;;;;;36.47;26.27;;;6.20;99.90;;;;;;5030145;28;20304;-80
2021/12/13 08:29:15;;;;;;;39.93;27.70;;;6.30;99.90;;;;;;5031073;28;20194;-80
2021/12/13 08:32:29;;;;;;;58.67;38.13;;;6.20;99.90;;;;;;5030578;28;20626;-80
2021/12/13 08:34:57;;;;;;;137.00;75.93;;;6.20;99.90;;;;;;5030218;28;20189;-80
2021/12/13 08:37:39;;;;;;;174.63;99.33;;;6.10;99.90;;;;;;5031349;28;20203;-80
2021/12/13 08:40:16;;;;;;;116.03;66.60;;;6.20;99.90;;;;;;5030993;28;20239;-80
2021/12/13 08:42:44;;;;;;;196.87;85.50;;;6.30;99.90;;;;;;5030829;28;20246;-80
2021/12/13 08:45:22;;;;;;;86.13;47.50;;;6.30;99.90;;;;;;5030357;28;20180;-80
2021/12/13 08:47:54;;;;;;;54.97;33.77;;;6.30;99.90;;;;;;5030239;28;20205;-79
2021/12/13 08:50:34;;;;;;;43.13;26.97;;;6.50;99.90;;;;;;5029794;27;20255;-81
2021/12/13 08:53:35;;;;;;;38.57;26.53;;;6.50;99.90;;;;;;5031495;28;20166;-79
2021/12/13 08:56:05;;;;;;;40.97;29.27;;;6.50;99.90;;;;;;5029331;28;20305;-81
2021/12/13 08:59:10;;;;;;;54.60;37.40;;;6.60;99.90;;;;;;5029772;28;20183;-80
2021/12/13 09:01:46;;;;;;;43.57;30.27;;;6.60;99.90;;;;;;5029751;28;20210;-80
2021/12/13 09:04:25;;;;;;;44.97;30.90;;;6.80;99.90;;;;;;5030576;28;20178;-80
2021/12/13 09:06:58;;;;;;;34.67;25.43;;;6.80;99.90;;;;;;5030904;28;20195;-81
2021/12/13 09:09:24;;;;;;;28.40;18.97;;;6.90;99.90;;;;;;5030428;28;20261;-79
2021/12/13 09:12:01;;;;;;;25.70;19.27;;;7.00;99.90;;;;;;5029682;28;20218;-80
2021/12/13 09:14:38;;;;;;;24.93;17.70;;;7.00;99.90;;;;;;5030481;28;20175;-80
2021/12/13 09:17:25;;;;;;;17.17;12.97;;;7.10;99.90;;;;;;5033574;28;20202;-80
2021/12/13 09:20:03;;;;;;;15.60;12.23;;;7.20;99.90;;;;;;5032133;28;20193;-80
2021/12/13 09:22:56;;;;;;;17.00;13.10;;;7.20;99.90;;;;;;5031795;28;20199;-80
2021/12/13 09:25:38;;;;;;;24.47;17.47;;;7.10;99.90;;;;;;5033366;28;20169;-80
2021/12/13 09:28:12;;;;;;;38.07;27.47;;;6.90;99.90;;;;;;5031671;28;20170;-80
2021/12/13 09:30:47;;;;;;;21.77;16.43;;;6.90;99.90;;;;;;5038625;28;20186;-80
2021/12/13 09:33:23;;;;;;;28.70;21.03;;;6.80;99.90;;;;;;5031890;28;20175;-80
2021/12/13 09:35:50;;;;;;;23.13;17.67;;;6.60;99.90;;;;;;5029438;28;20261;-80
2021/12/13 09:38:25;;;;;;;23.07;17.23;;;6.80;99.90;;;;;;5029269;28;20179;-80
2021/12/13 09:41:10;;;;;;;20.50;15.47;;;6.90;99.90;;;;;;5030950;28;20219;-80
2021/12/13 09:43:45;;;;;;;17.53;13.47;;;7.00;99.90;;;;;;5046940;28;20178;-80
2021/12/13 09:46:17;;;;;;;17.53;12.73;;;7.10;99.90;;;;;;5136634;28;20340;-80
2021/12/13 09:48:52;;;;;;;15.40;11.50;;;7.10;99.90;;;;;;5136167;28;20175;-80
2021/12/13 09:51:27;;;;;;;14.87;11.63;;;7.20;99.90;;;;;;5135465;28;20167;-80
2021/12/13 09:53:55;;;;;;;18.00;12.67;;;7.30;99.90;;;;;;5136301;28;20173;-80
2021/12/13 09:56:24;;;;;;;18.63;12.80;;;7.30;99.90;;;;;;5135842;28;20203;-80
2021/12/13 09:58:54;;;;;;;17.00;12.80;;;7.40;99.90;;;;;;5134597;28;20171;-80
2021/12/13 10:01:27;;;;;;;15.80;12.98;;;7.30;99.90;;;;;;5133687;28;20711;-85
2021/12/13 10:04:10;;;;;;;18.13;13.80;;;7.30;99.90;;;;;;5134041;28;20242;-81
2021/12/13 10:06:39;;;;;;;17.50;13.30;;;7.30;99.90;;;;;;5133291;28;20195;-80
2021/12/13 10:09:30;;;;;;;18.10;13.90;;;7.20;99.90;;;;;;5132875;28;20174;-80
2021/12/13 10:12:15;;;;;;;16.73;13.27;;;7.20;99.90;;;;;;5119637;28;20187;-80
2021/12/13 10:14:50;;;;;;;18.00;13.47;;;7.20;99.90;;;;;;5134389;27;20527;-80
2021/12/13 10:17:18;;;;;;;21.17;13.43;;;7.20;99.90;;;;;;5132164;28;20199;-81
2021/12/13 10:19:49;;;;;;;17.90;13.97;;;7.20;99.90;;;;;;5133623;27;20182;-81
2021/12/13 10:22:20;;;;;;;18.43;14.27;;;7.10;99.90;;;;;;5136669;27;20246;-79
2021/12/13 10:25:10;;;;;;;19.47;14.23;;;7.10;99.90;;;;;;5136446;27;20172;-80
2021/12/13 10:27:37;;;;;;;17.00;13.30;;;7.10;99.90;;;;;;5136575;27;20193;-80
2021/12/13 10:30:09;;;;;;;18.33;13.77;;;7.20;99.90;;;;;;5136419;27;20172;-80
2021/12/13 10:32:38;;;;;;;18.23;13.97;;;7.20;99.90;;;;;;5138410;27;20164;-80
2021/12/13 10:35:09;;;;;;;18.33;13.77;;;7.20;99.90;;;;;;5139429;27;20215;-80
2021/12/13 10:37:42;;;;;;;19.23;14.23;;;7.10;99.90;;;;;;5139765;27;20195;-80
2021/12/13 10:40:12;;;;;;;21.50;14.37;;;7.20;99.90;;;;;;5138439;27;20176;-81
2021/12/13 10:42:58;;;;;;;22.70;13.90;;;7.20;99.90;;;;;;5137632;27;20187;-80
2021/12/13 10:45:30;;;;;;;20.33;14.47;;;7.20;99.90;;;;;;5137916;27;20183;-80
2021/12/13 10:48:00;;;;;;;17.40;13.33;;;7.20;99.90;;;;;;5138388;27;20198;-81
2021/12/13 10:50:31;;;;;;;18.63;13.70;;;7.20;99.90;;;;;;5137626;27;20176;-81
2021/12/13 10:52:58;;;;;;;18.00;13.33;;;7.40;99.90;;;;;;5139340;27;20167;-80
2021/12/13 10:55:32;;;;;;;19.10;13.93;;;7.40;99.90;;;;;;5079596;27;20186;-80
2021/12/13 10:57:58;;;;;;;21.77;14.95;;;7.50;99.90;;;;;;5034053;28;20203;-80
2021/12/13 11:00:34;;;;;;;17.23;13.07;;;7.50;99.90;;;;;;5034165;28;20257;-80
2021/12/13 11:03:11;;;;;;;17.35;12.27;;;7.60;99.90;;;;;;5033780;28;20198;-80
2021/12/13 11:05:37;;;;;;;22.38;13.48;;;7.70;99.90;;;;;;5035638;28;20163;-80
2021/12/13 11:08:05;;;;;;;19.02;14.10;;;7.70;99.90;;;;;;5025940;28;20206;-80
2021/12/13 11:10:38;;;;;;;20.85;13.82;;;7.60;99.90;;;;;;5026518;28;20190;-80
2021/12/13 11:13:04;;;;;;;20.13;14.57;;;7.40;99.90;;;;;;5014264;28;20552;-80
2021/12/13 11:15:37;;;;;;;20.98;15.30;;;7.40;99.90;;;;;;5014851;28;20175;-80
2021/12/13 11:18:06;;;;;;;21.43;14.93;;;7.30;99.90;;;;;;5013833;28;20352;-80
2021/12/13 11:20:53;;;;;;;27.67;15.93;;;7.30;99.90;;;;;;5012676;28;20195;-80
2021/12/13 11:23:20;;;;;;;24.10;14.95;;;7.40;99.90;;;;;;5011807;28;20237;-80
2021/12/13 11:25:51;;;;;;;19.48;13.68;;;7.40;99.90;;;;;;5012806;28;20254;-80
2021/12/13 11:28:17;;;;;;;20.25;13.90;;;7.40;99.90;;;;;;5013242;28;20172;-80
2021/12/13 11:30:45;;;;;;;20.13;14.13;;;7.50;99.90;;;;;;5012708;28;20202;-80
2021/12/13 11:33:41;;;;;;;30.65;16.70;;;7.60;99.90;;;;;;5013535;28;20546;-80
2021/12/13 11:36:10;;;;;;;23.33;16.53;;;7.20;99.90;;;;;;5012982;28;20198;-80
2021/12/13 11:39:04;;;;;;;26.13;17.27;;;7.40;99.90;;;;;;5012735;28;20176;-80
2021/12/13 11:41:59;;;;;;;19.40;13.80;;;7.00;99.90;;;;;;5012764;28;20211;-80
2021/12/13 11:45:02;;;;;;;20.33;13.37;;;7.30;99.90;;;;;;5012798;28;20239;-80
2021/12/13 11:47:43;;;;;;;16.67;11.67;;;7.40;99.90;;;;;;5012626;28;20195;-80
2021/12/13 11:50:23;;;;;;;15.93;11.53;;;7.50;99.90;;;;;;5013333;28;20167;-80
2021/12/13 11:53:08;;;;;;;16.07;12.27;;;7.40;99.90;;;;;;5012570;28;20175;-80
2021/12/13 11:56:11;;;;;;;17.00;13.07;;;7.50;99.90;;;;;;5012722;28;20179;-80
2021/12/13 12:02:14;;;;;;;17.17;12.27;;;7.70;99.90;;;;;;5013346;28;20206;-80
2021/12/13 12:05:08;;;;;;;18.50;12.73;;;7.80;99.90;;;;;;5012489;28;20176;-80
2021/12/13 12:08:19;;;;;;;18.70;12.80;;;7.90;99.90;;;;;;5012567;28;20557;-80
2021/12/13 12:11:18;;;;;;;16.25;12.18;;;7.90;99.90;;;;;;5027949;28;20187;-80
2021/12/13 12:14:09;;;;;;;16.73;12.13;;;7.90;99.90;;;;;;5013276;28;20179;-80
2021/12/13 12:16:42;;;;;;;15.68;11.40;;;7.80;99.90;;;;;;5013015;28;20195;-80
2021/12/13 12:19:14;;;;;;;17.00;11.43;;;8.00;99.90;;;;;;5011868;28;20176;-80
2021/12/13 12:21:48;;;;;;;15.35;11.18;;;7.90;99.90;;;;;;5011804;28;20292;-80
2021/12/13 12:24:35;;;;;;;16.00;11.55;;;8.00;99.90;;;;;;5011888;28;20182;-80
2021/12/13 12:27:19;;;;;;;16.80;12.07;;;8.00;99.90;;;;;;5011574;28;20202;-80
2021/12/13 12:29:49;;;;;;;15.45;11.75;;;7.90;99.90;;;;;;5010942;28;20183;-80
2021/12/13 12:32:20;;;;;;;16.08;11.98;;;7.90;99.90;;;;;;5011966;28;20183;-80
2021/12/13 12:34:54;;;;;;;14.35;11.32;;;7.90;99.90;;;;;;5012647;28;20176;-80
2021/12/13 12:37:54;;;;;;;16.25;11.52;;;8.00;99.90;;;;;;5010816;28;20276;-80
2021/12/13 12:40:26;;;;;;;23.88;17.85;;;8.00;99.90;;;;;;5011338;28;20197;-80
2021/12/13 12:42:57;;;;;;;22.23;15.23;;;7.80;99.90;;;;;;5011465;28;20195;-80
2021/12/13 12:45:31;;;;;;;21.10;14.18;;;7.80;99.90;;;;;;5012396;28;20168;-80
2021/12/13 12:48:11;;;;;;;21.73;14.27;;;7.70;99.90;;;;;;5011634;28;20224;-80
2021/12/13 12:50:42;;;;;;;23.33;14.48;;;7.70;99.90;;;;;;5012129;28;20191;-80
2021/12/13 12:53:11;;;;;;;18.90;13.52;;;7.70;99.90;;;;;;5012260;28;20172;-81
2021/12/13 12:55:48;;;;;;;20.48;13.98;;;7.70;99.90;;;;;;5012733;28;20176;-80
2021/12/13 12:58:24;;;;;;;21.05;14.15;;;7.80;99.90;;;;;;5012538;28;20209;-80
2021/12/13 13:00:52;;;;;;;17.02;11.98;;;7.80;99.90;;;;;;5011067;28;20174;-81
2021/12/13 13:03:31;;;;;;;19.35;13.95;;;8.00;99.90;;;;;;5010515;28;20182;-81
2021/12/13 13:06:03;;;;;;;21.70;14.50;;;7.90;99.90;;;;;;5010961;28;20183;-81
2021/12/13 13:11:52;;;;;;;18.38;12.75;;;7.90;99.90;;;;;;5011862;28;20516;-81
2021/12/13 13:14:22;;;;;;;21.85;14.75;;;7.80;99.90;;;;;;5010594;28;20179;-80
2021/12/13 13:16:59;;;;;;;20.55;13.60;;;7.80;99.90;;;;;;5011062;28;20203;-80
2021/12/13 13:19:35;;;;;;;24.63;14.68;;;7.80;99.90;;;;;;5010189;28;20530;-80
2021/12/13 13:22:15;;;;;;;25.10;14.75;;;7.80;99.90;;;;;;5008607;28;20218;-78
2021/12/13 13:24:50;;;;;;;24.90;15.65;;;7.70;99.90;;;;;;5010264;28;20166;-78
2021/12/13 13:27:17;;;;;;;23.48;14.68;;;7.60;99.90;;;;;;5009561;28;20217;-78
2021/12/13 13:29:43;;;;;;;22.80;15.57;;;7.60;99.90;;;;;;5010676;28;20164;-78
2021/12/13 13:32:12;;;;;;;28.10;17.25;;;7.70;99.90;;;;;;5009915;28;20176;-78
2021/12/13 13:34:58;;;;;;;24.73;15.38;;;7.70;99.90;;;;;;5009576;28;20252;-78
2021/12/13 13:37:37;;;;;;;24.00;15.60;;;7.70;99.90;;;;;;5011091;28;20209;-78
2021/12/13 13:40:12;;;;;;;23.35;15.23;;;7.80;99.90;;;;;;5009588;28;20180;-77
2021/12/13 13:42:47;;;;;;;25.52;16.15;;;7.80;99.90;;;;;;5010602;28;20187;-78